WetterOnline ( https://www.wetteronline.de )

Wetter aktuell Boizenburg

Aktuelles Wetter: Boizenburg (46m)

6-stündlich | Neueste Meldungen
Ortszeit Temperatur Wetter
Do, 29.10. 13:00 11.0° C bewölkt
Do, 29.10. 7:00 8.8° C bewölkt
Do, 29.10. 1:00 8.4° C bedeckt
Mi, 28.10. 19:00 9.6° C wolkig
Mi, 28.10. 13:00 13.6° C wolkig
Mi, 28.10. 7:00 10.5° C bewölkt
Mi, 28.10. 1:00 9.7° C bedeckt
Di, 27.10. 19:00 9.9° C Sprühregen
Ortszeit Temperatur Wetter
Do, 29.10. 15:30 10.9° C Sprühregen
Do, 29.10. 15:20 10.9° C Sprühregen
Do, 29.10. 15:10 10.9° C bedeckt
Do, 29.10. 15:00 11.0° C Sprühregen
Do, 29.10. 14:50 11.0° C Sprühregen
Do, 29.10. 14:40 11.2° C bewölkt
Do, 29.10. 14:30 10.9° C bewölkt
Do, 29.10. 14:00 11.1° C bewölkt
Ortszeit Relative Feuchte Sichtweite
Do, 29.10. 13:00 76% 35 km
Do, 29.10. 7:00 93% 30 km
Do, 29.10. 1:00 88% 55 km
Mi, 28.10. 19:00 89% 45 km
Mi, 28.10. 13:00 69% 45 km
Mi, 28.10. 7:00 90% 65 km
Mi, 28.10. 1:00 76% 60 km
Di, 27.10. 19:00 82% 30 km
Ortszeit Relative Feuchte Sichtweite
Do, 29.10. 15:30 78% 35 km
Do, 29.10. 15:20 78% -
Do, 29.10. 15:10 77% -
Do, 29.10. 15:00 76% 28 km
Do, 29.10. 14:50 76% -
Do, 29.10. 14:40 76% -
Do, 29.10. 14:30 75% 40 km
Do, 29.10. 14:00 74% 50 km
Ortszeit Niederschlagsmenge Niederschlagsart
Do, 29.10. 13:00 2 l/m2 in 6 Std. Regen
Do, 29.10. 7:00 3 l/m2 in 12 Std. Regen
Do, 29.10. 1:00 0.1 l/m2 in 6 Std. Regen
Mi, 28.10. 19:00 0.3 l/m2 in 12 Std. Regen
Mi, 28.10. 13:00 0.0 l/m2 in 6 Std. -
Mi, 28.10. 7:00 0.1 l/m2 in 12 Std. Regen
Mi, 28.10. 1:00 0.1 l/m2 in 6 Std. Regen
Di, 27.10. 19:00 0.4 l/m2 in 12 Std. Regen
Ortszeit Niederschlagsmenge Niederschlagsart
Do, 29.10. 15:30 0.1 l/m2 in 1 Std. -
Do, 29.10. 15:20 keine Meldung -
Do, 29.10. 15:10 keine Meldung -
Do, 29.10. 15:00 0.1 l/m2 in 1 Std. Regen
Do, 29.10. 14:50 keine Meldung -
Do, 29.10. 14:40 keine Meldung -
Do, 29.10. 14:30 0.0 l/m2 in 1 Std. -
Do, 29.10. 14:00 0.0 l/m2 in 1 Std. -
Ortszeit Stärke Spitze Richtung
km/h Bft. km/h Grad Sektor
Do, 29.10. 13:00 22 4 40 240° SW
Do, 29.10. 7:00 18 3 32 220° SW
Do, 29.10. 1:00 7 2 29 140° SO
Mi, 28.10. 19:00 13 3 39 180° S
Mi, 28.10. 13:00 18 3 36 210° SW
Mi, 28.10. 7:00 17 3 37 200° S
Mi, 28.10. 1:00 14 3 40 150° SO
Di, 27.10. 19:00 11 2 40 170° S
Ortszeit Stärke Spitze Richtung
km/h Bft. km/h Grad Sektor
Do, 29.10. 15:30 15 3 33 240° SW
Do, 29.10. 15:20 15 3 - 240° SW
Do, 29.10. 15:10 17 3 - 250° W
Do, 29.10. 15:00 19 3 37 240° SW
Do, 29.10. 14:50 19 3 - 240° SW
Do, 29.10. 14:40 18 3 - 240° SW
Do, 29.10. 14:30 20 4 37 240° SW
Do, 29.10. 14:00 22 4 40 250° W
Ortszeit Untergrenze Bedeckung Gattung
total tief tief mittel hoch
Do, 29.10. 13:00 660 m 7/8 7/8 - - -
Do, 29.10. 7:00 450 m 7/8 8/8 - - -
Do, 29.10. 1:00 1500 m 8/8 8/8 - - -
Mi, 28.10. 19:00 1440 m 8/8 1/8 - - -
Mi, 28.10. 13:00 870 m 8/8 3/8 - - -
Mi, 28.10. 7:00 540 m 7/8 8/8 - - -
Mi, 28.10. 1:00 930 m 8/8 8/8 - - -
Di, 27.10. 19:00 1500 m 8/8 8/8 - - -
Ortszeit Bedeckungsgrad in Achtel und Wolkenuntergrenze
Do, 29.10. 15:30 3(690m) 6(840m) 7(960m)
Do, 29.10. 15:20 3(690m) 6(840m) 7(960m)
Do, 29.10. 15:10 3(750m) 7(900m) 8(1200m)
Do, 29.10. 15:00 5(720m) 7(1200m) 8(3600m)
Do, 29.10. 14:50 5(720m) 7(1200m) 8(3600m)
Do, 29.10. 14:40 4(750m) 7(1320m) 7(2100m)
Do, 29.10. 14:30 4(720m) 7(1110m) 7(1380m)
Do, 29.10. 14:00 1(750m) 7(1230m) 7(1470m)
Ortszeit Luftdruck NN (hPa) Tendenz (hPa in 3 Std.)
Do, 29.10. 13:00 1011 + 2,1
Do, 29.10. 7:00 1006 + 1,4
Do, 29.10. 1:00 1005 - 1,6
Mi, 28.10. 19:00 1008 + 0,5
Mi, 28.10. 13:00 1007 0,0
Mi, 28.10. 7:00 1004 + 1,8
Mi, 28.10. 1:00 1004 - 1,6
Di, 27.10. 19:00 1005 0,0
Ortszeit Luftdruck NN (hPa) Tendenz (hPa in 3 Std.)
Do, 29.10. 15:30 1013 + 1,7
Do, 29.10. 15:20 1013 keine Meldung
Do, 29.10. 15:10 1013 keine Meldung
Do, 29.10. 15:00 1013 + 1,8
Do, 29.10. 14:50 1013 keine Meldung
Do, 29.10. 14:40 1012 keine Meldung
Do, 29.10. 14:30 1012 + 1,7
Do, 29.10. 14:00 1012 + 1,8
Ortszeit Schneehöhe (cm)
Do, 29.10. 13:00 0
Do, 29.10. 7:00 0
Do, 29.10. 1:00 0
Mi, 28.10. 19:00 0
Mi, 28.10. 13:00 0
Mi, 28.10. 7:00 0
Mi, 28.10. 1:00 0
Di, 27.10. 19:00 0
Ortszeit Schneehöhe (cm)
Do, 29.10. 15:30 0
Do, 29.10. 15:20 0
Do, 29.10. 15:10 0
Do, 29.10. 15:00 0
Do, 29.10. 14:50 0
Do, 29.10. 14:40 0
Do, 29.10. 14:30 0
Do, 29.10. 14:00 0
Link zu dieser Seite / Seite empfehlen

Das Wetter in ...